»·PEaware :: BHI550 PHNL-KSAN

BHI550 :: PHNL-KSAN

FLIGHT INFORMATION

Flight Status: Arrived
Operator: BlueHorizon Intl
More flights by this operator :: More flights under this callsign
Pilot: Rodolfo A. (68)
Aircraft: BOEING 767-300
(B763)
More flights by this aircraft type
Origin: PHNL Honolulu Intl
United States
Destination: KSAN San Diego Intl-Lindbergh
United States
More flights between these airports :: More routes between these airports
Route: +FITES R578 FICKY ROSIN MALIT SXC HUBRD1
File this flight plan on PilotEdge
Remarks: ENTER ZLA AT FICKY
Altitude:
(Current/Filed)
350ft
Speed:
(Current/Filed)
480kts
Departed: 29-Jun-12 04:02 PM
Arrived: 29-Jun-12 09:15 PM
Distance/Time
Traveled:
2266nm/5:13
Distance/Time
To Go:
Arrived

Flight Plot

Page will automatically refresh every two minutes.


Map Options




Map Legend


Flown Route
Filed Route
Departure Airport
Arrival Airport
Navaid (VOR, NDB)
Fix

Horizontal Profiles

Position Reports

Time Latitude Longitude Heading Altitude Ground
Speed
29-Jun-12 15:57 21.306803 -157.945723 90 23ft 0kts
29-Jun-12 15:58 21.306803 -157.945723 90 23ft 0kts
29-Jun-12 15:59 21.306803 -157.945723 90 23ft 0kts
29-Jun-12 16:00 21.306804 -157.944116 90 23ft 42kts
29-Jun-12 16:01 21.302660 -157.901013 132 1511ft 194kts
29-Jun-12 16:02 21.251245 -157.857484 113 4055ft 262kts
29-Jun-12 16:03 21.268437 -157.782901 69 6986ft 272kts
29-Jun-12 16:04 21.295678 -157.704814 69 9607ft 284kts
29-Jun-12 16:05 21.295615 -157.618015 94 11284ft 320kts
29-Jun-12 16:06 21.286224 -157.511116 95 12064ft 392kts
29-Jun-12 16:07 21.275036 -157.393460 95 14730ft 403kts
29-Jun-12 16:08 21.263423 -157.272672 95 16946ft 416kts
29-Jun-12 16:09 21.251204 -157.146581 95 18884ft 429kts
29-Jun-12 16:10 21.238632 -157.017859 95 20564ft 441kts
29-Jun-12 16:11 21.225659 -156.886090 95 22192ft 451kts
29-Jun-12 16:12 21.212371 -156.752215 95 23787ft 460kts
29-Jun-12 16:13 21.198608 -156.614681 95 25178ft 470kts
29-Jun-12 16:14 21.184386 -156.473740 95 26416ft 479kts
29-Jun-12 16:15 21.169872 -156.332943 96 27663ft 488kts
29-Jun-12 16:16 21.154825 -156.186902 96 29073ft 487kts
29-Jun-12 16:17 21.140175 -156.045337 96 30444ft 483kts
29-Jun-12 16:18 21.125337 -155.903130 96 31605ft 481kts
29-Jun-12 16:19 21.110504 -155.762120 96 32592ft 479kts
29-Jun-12 16:20 21.095954 -155.624886 96 33406ft 477kts
29-Jun-12 16:21 21.080471 -155.480014 96 34126ft 475kts
29-Jun-12 16:22 21.065210 -155.339908 96 34697ft 474kts
29-Jun-12 16:23 21.050099 -155.201468 96 34998ft 472kts
29-Jun-12 16:24 21.034855 -155.062151 96 35000ft 472kts
29-Jun-12 16:25 21.019434 -154.922271 96 35000ft 472kts
29-Jun-12 16:26 21.004002 -154.783345 96 35000ft 472kts
29-Jun-12 16:27 20.988293 -154.642994 96 35000ft 472kts
29-Jun-12 16:28 20.975249 -154.527245 96 35000ft 472kts
29-Jun-12 16:29 20.959420 -154.387732 96 34999ft 472kts
29-Jun-12 16:30 20.943425 -154.249915 96 35000ft 472kts
29-Jun-12 16:31 20.927339 -154.110239 96 35000ft 472kts
29-Jun-12 16:32 20.911154 -153.970667 96 35000ft 472kts
29-Jun-12 16:33 20.894924 -153.831709 96 35000ft 472kts
29-Jun-12 16:34 20.878818 -153.694786 96 35000ft 472kts
29-Jun-12 16:35 20.862027 -153.553039 96 35000ft 472kts
29-Jun-12 16:36 20.845340 -153.413175 96 35000ft 472kts
29-Jun-12 16:37 20.828630 -153.276069 97 35000ft 472kts
29-Jun-12 16:38 20.811776 -153.136853 97 35000ft 472kts
29-Jun-12 16:39 20.801123 -152.997581 75 34979ft 471kts
29-Jun-12 16:40 20.858617 -152.872500 61 34999ft 473kts
29-Jun-12 16:41 20.920451 -152.747840 61 35000ft 472kts
29-Jun-12 16:42 20.981648 -152.624273 61 35000ft 472kts
29-Jun-12 16:43 21.043200 -152.499709 61 35000ft 472kts
29-Jun-12 16:44 21.104110 -152.376130 62 34999ft 472kts
29-Jun-12 16:45 21.165002 -152.251797 62 35000ft 472kts
29-Jun-12 16:46 21.226435 -152.126602 62 35000ft 472kts
29-Jun-12 16:47 21.286806 -152.003297 62 35000ft 472kts
29-Jun-12 16:48 21.344939 -151.884294 62 35000ft 472kts
29-Jun-12 16:49 21.405558 -151.759916 62 35000ft 472kts
29-Jun-12 16:50 21.466270 -151.635055 62 35000ft 472kts
29-Jun-12 16:51 21.527393 -151.509052 62 35000ft 472kts
29-Jun-12 16:52 21.586997 -151.383755 63 35000ft 472kts
29-Jun-12 16:53 21.645609 -151.258456 63 34999ft 472kts
29-Jun-12 16:54 21.704379 -151.133235 63 35000ft 472kts
29-Jun-12 16:55 21.763529 -151.006832 63 35000ft 472kts
29-Jun-12 16:56 21.822084 -150.881392 63 35000ft 472kts
29-Jun-12 16:57 21.881360 -150.754096 63 35000ft 472kts
29-Jun-12 16:58 21.940158 -150.627515 63 35000ft 472kts
29-Jun-12 16:59 21.998270 -150.502103 63 35000ft 472kts
29-Jun-12 17:00 22.056835 -150.375333 63 34999ft 472kts
29-Jun-12 17:01 22.115024 -150.248545 63 35000ft 472kts
29-Jun-12 17:02 22.173195 -150.122053 63 35000ft 472kts
29-Jun-12 17:03 22.231629 -149.994681 63 35000ft 472kts
29-Jun-12 17:04 22.289390 -149.868460 63 35000ft 472kts
29-Jun-12 17:05 22.347865 -149.740352 63 35000ft 472kts
29-Jun-12 17:06 22.405234 -149.614350 63 35000ft 472kts
29-Jun-12 17:07 22.463273 -149.486550 63 35000ft 472kts
29-Jun-12 17:08 22.520555 -149.359793 64 35000ft 472kts
29-Jun-12 17:09 22.577898 -149.232520 63 35000ft 472kts
29-Jun-12 17:10 22.635549 -149.104587 63 35000ft 472kts
29-Jun-12 17:11 22.692498 -148.977928 63 35000ft 472kts
29-Jun-12 17:12 22.749810 -148.850094 63 35000ft 472kts
29-Jun-12 17:13 22.806908 -148.722401 63 35000ft 472kts
29-Jun-12 17:14 22.864207 -148.593923 63 35000ft 472kts
29-Jun-12 17:15 22.921375 -148.465399 63 35000ft 472kts
29-Jun-12 17:16 22.978094 -148.337003 64 34999ft 472kts
29-Jun-12 17:17 23.034410 -148.209585 64 35000ft 472kts
29-Jun-12 17:18 23.091126 -148.081056 64 35000ft 472kts
29-Jun-12 17:19 23.147528 -147.952902 64 35000ft 472kts
29-Jun-12 17:20 23.194328 -147.846303 64 35000ft 472kts
29-Jun-12 17:21 23.260556 -147.695044 64 35000ft 472kts
29-Jun-12 17:22 23.307896 -147.586627 64 35000ft 472kts
29-Jun-12 17:23 23.363955 -147.457922 64 35000ft 472kts
29-Jun-12 17:24 23.419116 -147.330358 64 34999ft 472kts
29-Jun-12 17:25 23.475274 -147.200612 64 35000ft 472kts
29-Jun-12 17:26 23.531288 -147.070948 64 35000ft 472kts
29-Jun-12 17:27 23.587081 -146.941442 64 35000ft 472kts
29-Jun-12 17:28 23.642701 -146.811978 64 34999ft 472kts
29-Jun-12 17:29 23.698133 -146.682572 64 35000ft 472kts
29-Jun-12 17:30 23.753168 -146.553754 64 35000ft 472kts
29-Jun-12 17:31 23.808708 -146.423390 64 35000ft 472kts
29-Jun-12 17:32 23.863524 -146.293690 65 35000ft 472kts
29-Jun-12 17:33 23.918297 -146.164358 65 35000ft 472kts
29-Jun-12 17:34 23.974008 -146.032478 65 35000ft 472kts
29-Jun-12 17:35 24.028910 -145.902140 65 35000ft 472kts
29-Jun-12 17:36 24.083035 -145.773281 65 35000ft 472kts
29-Jun-12 17:37 24.138111 -145.641780 65 35000ft 472kts
29-Jun-12 17:38 24.192461 -145.511640 65 35000ft 472kts
29-Jun-12 17:39 24.246843 -145.380968 65 35001ft 472kts
29-Jun-12 17:40 24.300944 -145.250034 65 35000ft 472kts
29-Jun-12 17:41 24.355428 -145.118415 65 35000ft 472kts
29-Jun-12 17:42 24.409130 -144.988319 65 35000ft 472kts
29-Jun-12 17:43 24.463454 -144.856548 65 35000ft 472kts
29-Jun-12 17:44 24.517248 -144.725721 65 35000ft 472kts
29-Jun-12 17:45 24.571551 -144.593255 65 35000ft 472kts
29-Jun-12 17:46 24.625072 -144.462313 65 35000ft 472kts
29-Jun-12 17:47 24.679733 -144.327580 65 35000ft 472kts
29-Jun-12 17:48 24.729894 -144.204010 65 35000ft 472kts
29-Jun-12 17:49 24.783385 -144.071970 65 35000ft 472kts
29-Jun-12 17:50 24.836881 -143.939521 65 35000ft 472kts
29-Jun-12 17:51 24.889766 -143.808186 65 35000ft 472kts
29-Jun-12 17:52 24.943181 -143.675129 65 35000ft 472kts
29-Jun-12 17:53 24.996099 -143.542904 65 35000ft 472kts
29-Jun-12 17:54 25.048260 -143.412174 65 35000ft 472kts
29-Jun-12 17:55 25.100836 -143.279194 66 35000ft 472kts
29-Jun-12 17:56 25.153515 -143.146321 66 35000ft 472kts
29-Jun-12 17:57 25.206002 -143.013546 66 35000ft 472kts
29-Jun-12 17:58 25.258573 -142.880143 66 35000ft 472kts
29-Jun-12 17:59 25.310638 -142.747608 66 35000ft 472kts
29-Jun-12 18:00 25.362399 -142.615436 66 35000ft 472kts
29-Jun-12 18:01 25.411997 -142.488394 66 35000ft 472kts
29-Jun-12 18:02 25.466184 -142.348531 66 35000ft 472kts
29-Jun-12 18:03 25.517978 -142.214798 66 35000ft 472kts
29-Jun-12 18:04 25.569851 -142.080636 66 35000ft 472kts
29-Jun-12 18:05 25.620906 -141.948173 66 35000ft 472kts
29-Jun-12 18:06 25.663563 -141.837200 66 35000ft 472kts
29-Jun-12 18:07 25.723609 -141.680452 66 35000ft 472kts
29-Jun-12 18:08 25.766415 -141.568334 66 35000ft 472kts
29-Jun-12 18:09 25.817641 -141.433763 66 35000ft 472kts
29-Jun-12 18:10 25.876704 -141.277205 67 35000ft 472kts
29-Jun-12 18:11 25.919046 -141.165184 67 35000ft 472kts
29-Jun-12 18:12 25.969351 -141.031724 67 35000ft 472kts
29-Jun-12 18:13 26.019968 -140.896991 67 35000ft 472kts
29-Jun-12 18:14 26.070568 -140.761854 67 35000ft 472kts
29-Jun-12 18:15 26.120848 -140.627123 67 35000ft 472kts
29-Jun-12 18:16 26.171149 -140.491879 67 35000ft 472kts
29-Jun-12 18:17 26.220771 -140.357430 67 35000ft 472kts
29-Jun-12 18:18 26.270096 -140.223625 67 35000ft 472kts
29-Jun-12 18:19 26.320123 -140.087746 67 35000ft 472kts
29-Jun-12 18:20 26.369821 -139.952307 67 35000ft 472kts
29-Jun-12 18:21 26.419318 -139.816952 67 35000ft 472kts
29-Jun-12 18:22 26.468920 -139.680842 67 35000ft 472kts
29-Jun-12 18:23 26.518339 -139.544763 67 35000ft 472kts
29-Jun-12 18:24 26.567047 -139.410179 67 35000ft 472kts
29-Jun-12 18:25 26.615738 -139.274306 67 35000ft 472kts
29-Jun-12 18:26 26.664483 -139.138605 67 35000ft 472kts
29-Jun-12 18:27 26.713343 -139.002170 67 35000ft 472kts
29-Jun-12 18:28 26.762098 -138.865556 67 35000ft 472kts
29-Jun-12 18:29 26.810655 -138.729015 67 35000ft 472kts
29-Jun-12 18:30 26.858652 -138.593571 67 35000ft 472kts
29-Jun-12 18:31 26.907068 -138.456459 67 35000ft 472kts
29-Jun-12 18:32 26.954822 -138.319903 68 35000ft 472kts
29-Jun-12 18:33 27.002797 -138.182936 68 35000ft 472kts
29-Jun-12 18:34 27.050707 -138.045387 68 35000ft 472kts
29-Jun-12 18:35 27.098341 -137.908150 68 35000ft 472kts
29-Jun-12 18:36 27.145503 -137.771773 68 35000ft 472kts
29-Jun-12 18:37 27.192869 -137.634309 68 35000ft 472kts
29-Jun-12 18:38 27.240187 -137.496476 68 35000ft 472kts
29-Jun-12 18:39 27.286849 -137.359356 69 35000ft 472kts
29-Jun-12 18:40 27.333825 -137.221175 68 35000ft 472kts
29-Jun-12 18:41 27.380385 -137.084024 68 35000ft 472kts
29-Jun-12 18:42 27.426995 -136.946223 68 35000ft 472kts
29-Jun-12 18:43 27.473436 -136.808403 68 35000ft 472kts
29-Jun-12 18:44 27.520188 -136.669132 68 35000ft 472kts
29-Jun-12 18:45 27.566343 -136.531119 68 35000ft 472kts
29-Jun-12 18:46 27.612487 -136.392517 69 34999ft 472kts
29-Jun-12 18:47 27.658003 -136.254492 69 35000ft 472kts
29-Jun-12 18:48 27.701321 -136.123489 69 35000ft 472kts
29-Jun-12 18:49 27.747117 -135.984465 69 35000ft 472kts
29-Jun-12 18:50 27.792677 -135.845619 69 35000ft 472kts
29-Jun-12 18:51 27.838216 -135.706295 69 35000ft 472kts
29-Jun-12 18:52 27.883641 -135.566778 69 35000ft 472kts
29-Jun-12 18:53 27.928545 -135.428314 69 35000ft 472kts
29-Jun-12 18:54 27.973052 -135.289496 69 35000ft 472kts
29-Jun-12 18:55 28.017954 -135.149902 69 35000ft 472kts
29-Jun-12 18:56 28.062881 -135.009718 69 35000ft 472kts
29-Jun-12 18:57 28.107566 -134.869733 69 35000ft 472kts
29-Jun-12 18:59 28.196103 -134.590693 69 35000ft 472kts
29-Jun-12 19:00 28.232889 -134.474092 69 35000ft 472kts
29-Jun-12 19:01 28.276622 -134.334007 70 35000ft 472kts
29-Jun-12 19:02 28.320374 -134.194086 70 35000ft 472kts
29-Jun-12 19:04 28.408087 -133.912153 70 35000ft 472kts
29-Jun-12 19:05 28.451560 -133.771550 70 35000ft 472kts
29-Jun-12 19:06 28.494637 -133.631650 70 35000ft 472kts
29-Jun-12 19:07 28.537787 -133.490927 70 35000ft 472kts
29-Jun-12 19:08 28.580520 -133.350087 70 35000ft 472kts
29-Jun-12 19:09 28.623378 -133.208916 70 35000ft 472kts
29-Jun-12 19:10 28.666149 -133.067629 70 35000ft 472kts
29-Jun-12 19:11 28.708797 -132.926175 70 35000ft 472kts
29-Jun-12 19:12 28.750933 -132.785831 70 35000ft 472kts
29-Jun-12 19:13 28.794024 -132.641681 70 35000ft 472kts
29-Jun-12 19:14 28.836431 -132.499204 70 35000ft 472kts
29-Jun-12 19:15 28.878134 -132.357599 71 35000ft 472kts
29-Jun-12 19:16 28.919969 -132.215523 71 35000ft 472kts
29-Jun-12 19:17 28.961683 -132.073527 71 35000ft 472kts
29-Jun-12 19:18 29.002926 -131.932525 71 35000ft 472kts
29-Jun-12 19:19 29.044182 -131.790859 71 35000ft 472kts
29-Jun-12 19:20 29.085788 -131.647358 71 35000ft 472kts
29-Jun-12 19:21 29.126751 -131.505442 71 35000ft 472kts
29-Jun-12 19:22 29.167600 -131.362437 72 35000ft 472kts
29-Jun-12 19:23 29.208439 -131.219327 71 35000ft 472kts
29-Jun-12 19:24 29.248762 -131.077729 71 35000ft 472kts
29-Jun-12 19:25 29.289249 -130.934850 71 35000ft 472kts
29-Jun-12 19:26 29.329690 -130.791481 71 35000ft 472kts
29-Jun-12 19:27 29.369950 -130.648105 71 35000ft 472kts
29-Jun-12 19:28 29.410061 -130.504597 71 35000ft 472kts
29-Jun-12 19:29 29.449670 -130.361275 72 35000ft 472kts
29-Jun-12 19:30 29.488938 -130.219127 72 35000ft 472kts
29-Jun-12 19:31 29.528549 -130.075421 72 35000ft 472kts
29-Jun-12 19:32 29.568095 -129.931286 72 35000ft 472kts
29-Jun-12 19:33 29.607423 -129.787262 72 35000ft 472kts
29-Jun-12 19:34 29.646502 -129.643524 72 34999ft 472kts
29-Jun-12 19:35 29.685520 -129.499367 72 35000ft 472kts
29-Jun-12 19:36 29.723730 -129.356359 72 35000ft 472kts
29-Jun-12 19:37 29.762376 -129.211810 72 35000ft 472kts
29-Jun-12 19:38 29.800934 -129.067187 72 35000ft 472kts
29-Jun-12 19:39 29.839263 -128.922731 72 35000ft 472kts
29-Jun-12 19:40 29.877562 -128.777680 72 35000ft 472kts
29-Jun-12 19:41 29.915507 -128.633267 72 35000ft 472kts
29-Jun-12 19:42 29.953230 -128.488990 72 35000ft 472kts
29-Jun-12 19:43 29.990553 -128.344348 73 35000ft 472kts
29-Jun-12 19:44 30.028023 -128.199393 73 35000ft 472kts
29-Jun-12 19:45 30.065466 -128.054031 73 35000ft 472kts
29-Jun-12 19:46 30.102756 -127.908536 73 35000ft 472kts
29-Jun-12 19:47 30.139215 -127.765570 73 35000ft 472kts
29-Jun-12 19:48 30.174512 -127.626475 73 35000ft 472kts
29-Jun-12 19:49 30.211355 -127.480559 73 35000ft 472kts
29-Jun-12 19:50 30.247536 -127.335271 73 35000ft 472kts
29-Jun-12 19:51 30.277873 -127.213753 73 35000ft 472kts
29-Jun-12 19:52 30.314258 -127.067524 73 35000ft 472kts
29-Jun-12 19:53 30.350343 -126.921757 73 35000ft 472kts
29-Jun-12 19:54 30.386094 -126.776576 73 35000ft 472kts
29-Jun-12 19:55 30.422051 -126.629792 73 35000ft 472kts
29-Jun-12 19:56 30.457653 -126.483686 73 35000ft 472kts
29-Jun-12 19:57 30.492838 -126.337236 74 35000ft 472kts
29-Jun-12 19:58 30.528904 -126.187427 74 35000ft 472kts
29-Jun-12 19:59 30.564132 -126.040494 74 35000ft 472kts
29-Jun-12 20:00 30.598798 -125.895129 74 35000ft 472kts
29-Jun-12 20:01 30.633716 -125.747914 74 35000ft 472kts
29-Jun-12 20:02 30.668156 -125.601901 74 35000ft 472kts
29-Jun-12 20:03 30.702786 -125.454286 74 35000ft 472kts
29-Jun-12 20:04 30.736815 -125.306950 74 35000ft 472kts
29-Jun-12 20:05 30.770985 -125.159582 74 35000ft 472kts
29-Jun-12 20:06 30.804762 -125.013185 74 35000ft 472kts
29-Jun-12 20:07 30.838625 -124.865591 74 35000ft 472kts
29-Jun-12 20:08 30.872233 -124.718276 74 35000ft 472kts
29-Jun-12 20:09 30.905746 -124.570543 74 35000ft 472kts
29-Jun-12 20:10 30.939070 -124.422799 74 35000ft 472kts
29-Jun-12 20:11 30.971789 -124.275318 75 35000ft 472kts
29-Jun-12 20:12 31.004519 -124.128495 75 35000ft 472kts
29-Jun-12 20:13 31.037389 -123.980219 75 35000ft 472kts
29-Jun-12 20:14 31.069930 -123.832569 75 35000ft 472kts
29-Jun-12 20:15 31.102452 -123.684140 75 35000ft 472kts
29-Jun-12 20:16 31.134796 -123.535557 75 35000ft 472kts
29-Jun-12 20:17 31.165262 -123.386708 76 35000ft 472kts
29-Jun-12 20:18 31.195400 -123.238730 76 35000ft 472kts
29-Jun-12 20:19 31.225796 -123.089578 76 35000ft 472kts
29-Jun-12 20:20 31.255957 -122.940656 76 35000ft 472kts
29-Jun-12 20:21 31.286297 -122.789893 76 35000ft 472kts
29-Jun-12 20:22 31.316156 -122.640559 76 35000ft 472kts
29-Jun-12 20:23 31.345773 -122.491485 76 35000ft 472kts
29-Jun-12 20:24 31.374408 -122.344843 77 35000ft 472kts
29-Jun-12 20:25 31.404131 -122.193005 76 35000ft 472kts
29-Jun-12 20:26 31.433008 -122.044787 76 35000ft 472kts
29-Jun-12 20:27 31.462218 -121.893872 76 35000ft 472kts
29-Jun-12 20:28 31.491108 -121.743612 76 35000ft 472kts
29-Jun-12 20:29 31.519758 -121.593595 76 35000ft 472kts
29-Jun-12 20:30 31.547937 -121.445054 76 35000ft 472kts
29-Jun-12 20:31 31.589608 -121.299531 67 35000ft 473kts
29-Jun-12 20:32 31.639132 -121.157062 67 34998ft 472kts
29-Jun-12 20:33 31.688245 -121.014866 67 35000ft 472kts
29-Jun-12 20:34 31.737504 -120.871595 67 35000ft 472kts
29-Jun-12 20:35 31.786116 -120.729594 67 35000ft 472kts
29-Jun-12 20:37 31.875592 -120.466621 67 35000ft 472kts
29-Jun-12 20:38 31.931634 -120.299703 68 35000ft 472kts
29-Jun-12 20:39 31.997205 -120.198906 46 35000ft 473kts
29-Jun-12 20:40 32.101985 -120.067010 46 35000ft 472kts
29-Jun-12 20:41 32.176667 -119.972500 46 35000ft 472kts
29-Jun-12 20:42 32.265392 -119.859897 46 35000ft 472kts
29-Jun-12 20:43 32.354710 -119.746192 46 35000ft 472kts
29-Jun-12 20:44 32.443833 -119.632379 46 35000ft 472kts
29-Jun-12 20:45 32.532818 -119.518391 46 35000ft 472kts
29-Jun-12 20:46 32.618089 -119.408647 47 34999ft 472kts
29-Jun-12 20:47 32.695825 -119.307998 47 35000ft 472kts
29-Jun-12 20:48 32.775916 -119.204483 47 35000ft 472kts
29-Jun-12 20:49 32.865379 -119.088516 47 35000ft 472kts
29-Jun-12 20:50 32.954036 -118.973225 47 34995ft 473kts
29-Jun-12 20:51 33.041997 -118.858472 47 33584ft 473kts
29-Jun-12 20:52 33.130466 -118.742687 47 32098ft 477kts
29-Jun-12 20:53 33.219677 -118.625553 47 31008ft 479kts
29-Jun-12 20:54 33.308364 -118.508726 47 31000ft 481kts
29-Jun-12 20:55 33.364942 -118.374192 88 31005ft 481kts
29-Jun-12 20:56 33.347787 -118.215676 98 29840ft 479kts
29-Jun-12 20:57 33.327081 -118.061849 98 27834ft 462kts
29-Jun-12 20:58 33.306771 -117.912651 99 25821ft 448kts
29-Jun-12 20:59 33.286960 -117.768435 99 23816ft 435kts
29-Jun-12 21:00 33.267697 -117.629418 99 21826ft 423kts
29-Jun-12 21:01 33.196885 -117.528337 144 19802ft 411kts
29-Jun-12 21:02 33.102620 -117.454593 146 17786ft 398kts
29-Jun-12 21:03 33.015606 -117.388033 147 15501ft 351kts
29-Jun-12 21:04 32.942102 -117.331671 147 12461ft 292kts
29-Jun-12 21:05 32.876495 -117.281748 147 9435ft 275kts
29-Jun-12 21:06 32.832317 -117.217056 103 6518ft 272kts
29-Jun-12 21:07 32.816786 -117.137355 102 4967ft 218kts
29-Jun-12 21:08 32.804921 -117.076251 102 4982ft 181kts
29-Jun-12 21:09 32.764722 -117.061914 192 4980ft 182kts
29-Jun-12 21:10 32.720721 -117.088536 237 3999ft 166kts
29-Jun-12 21:11 32.722619 -117.144265 286 1050ft 184kts
29-Jun-12 21:12 32.733872 -117.191049 285 28ft 95kts
29-Jun-12 21:13 32.735272 -117.202307 198 28ft 8kts
29-Jun-12 21:14 32.734272 -117.203320 244 28ft 0kts

Navigation Log

Ident Type
1. PHNL Airport
2. FITES Fix
3. FAPIS Fix
4. FOMAS Fix
5. FIZEL Fix
6. FLITY Fix
7. FOOTS Fix
8. FICKY Fix
9. ROSIN Fix
10. MALIT Fix
11. SXC Navaid
12. HUBRD Fix
13. CARDI Fix
14. TORIE Fix
15. KSAN Airport